createdAt,value
2018-05-16T00:00:54.542Z,10.25
2018-05-16T00:03:22.018Z,9.73
2018-05-16T00:05:49.505Z,10.00
2018-05-16T00:08:16.982Z,10.38
2018-05-16T00:10:44.465Z,9.55
2018-05-16T00:13:11.942Z,10.43
2018-05-16T00:15:39.431Z,9.30
2018-05-16T00:18:06.901Z,9.95
2018-05-16T00:20:34.405Z,8.93
2018-05-16T00:23:01.875Z,9.85
2018-05-16T00:25:29.361Z,8.27
2018-05-16T00:27:56.834Z,9.55
2018-05-16T00:30:24.312Z,7.78
2018-05-16T00:32:51.803Z,7.90
2018-05-16T00:35:19.282Z,10.45
2018-05-16T00:37:46.758Z,7.47
2018-05-16T00:40:14.235Z,8.85
2018-05-16T00:42:41.722Z,8.23
2018-05-16T00:45:09.195Z,10.45
2018-05-16T00:47:36.690Z,10.52
2018-05-16T00:50:04.175Z,8.57
2018-05-16T00:52:31.689Z,10.60
2018-05-16T00:54:59.161Z,9.10
2018-05-16T00:57:26.644Z,11.12
2018-05-16T00:59:54.150Z,10.32
2018-05-16T01:02:21.647Z,9.45
2018-05-16T01:04:49.129Z,11.43
2018-05-16T01:07:16.609Z,12.60
2018-05-16T01:09:44.094Z,9.82
2018-05-16T01:12:11.566Z,11.15
2018-05-16T01:14:39.066Z,10.45
2018-05-16T01:17:06.554Z,9.45
2018-05-16T01:19:34.026Z,10.00
2018-05-16T01:22:01.539Z,11.65
2018-05-16T01:24:29.009Z,12.32
2018-05-16T01:26:56.502Z,15.15
2018-05-16T01:29:23.975Z,12.00
2018-05-16T01:31:51.464Z,10.98
2018-05-16T01:34:18.942Z,12.95
2018-05-16T01:36:46.419Z,10.80
2018-05-16T01:39:13.909Z,11.10
2018-05-16T01:41:41.430Z,12.30
2018-05-16T01:44:09.141Z,10.55
2018-05-16T01:46:36.622Z,11.00
2018-05-16T01:49:09.715Z,11.48
2018-05-16T01:51:37.190Z,12.07
2018-05-16T01:54:04.676Z,12.15
2018-05-16T01:56:32.195Z,11.77
2018-05-16T01:58:59.674Z,12.05
2018-05-16T02:01:27.174Z,12.70
2018-05-16T02:03:54.663Z,11.23
2018-05-16T02:06:22.144Z,11.68
2018-05-16T02:08:49.634Z,12.50
2018-05-16T02:11:17.122Z,12.35
2018-05-16T02:13:44.613Z,11.15
2018-05-16T02:16:12.096Z,13.10
2018-05-16T02:18:39.574Z,12.05
2018-05-16T02:21:07.084Z,10.90
2018-05-16T02:23:34.558Z,12.65
2018-05-16T02:26:02.062Z,12.60
2018-05-16T02:28:29.558Z,12.13
2018-05-16T02:30:57.055Z,11.60
2018-05-16T02:33:24.562Z,11.88
2018-05-16T02:35:52.057Z,13.43
2018-05-16T02:38:19.549Z,11.18
2018-05-16T02:40:47.027Z,11.82
2018-05-16T02:43:14.518Z,11.70
2018-05-16T02:45:41.770Z,12.07
2018-05-16T02:48:09.250Z,12.05
2018-05-16T02:50:36.916Z,12.05
2018-05-16T02:53:04.388Z,11.77
2018-05-16T02:55:31.869Z,14.65
2018-05-16T02:57:59.353Z,13.93
2018-05-16T03:00:26.850Z,11.05
2018-05-16T03:02:54.327Z,12.85
2018-05-16T03:05:21.818Z,14.25
2018-05-16T03:07:49.306Z,11.45
2018-05-16T03:10:16.794Z,12.48
2018-05-16T03:12:44.303Z,12.40
2018-05-16T03:15:11.789Z,11.60
2018-05-16T03:17:39.289Z,13.93
2018-05-16T03:20:06.781Z,14.18
2018-05-16T03:22:34.282Z,14.82
2018-05-16T03:25:01.753Z,11.65
2018-05-16T03:27:29.246Z,12.57
2018-05-16T03:29:56.730Z,13.90
2018-05-16T03:32:24.225Z,12.35
2018-05-16T03:34:51.781Z,14.00
2018-05-16T03:37:19.398Z,12.70
2018-05-16T03:39:46.881Z,13.00
2018-05-16T03:42:14.367Z,12.60
2018-05-16T03:44:41.853Z,11.88
2018-05-16T03:47:09.330Z,12.88
2018-05-16T03:49:36.817Z,13.75
2018-05-16T03:52:04.323Z,12.25
2018-05-16T03:54:31.993Z,13.00
2018-05-16T03:56:59.481Z,12.40
2018-05-16T03:59:32.681Z,11.43
2018-05-16T04:02:05.786Z,11.32
2018-05-16T04:04:33.252Z,12.13
2018-05-16T04:07:00.769Z,13.45
2018-05-16T04:09:28.247Z,17.27
2018-05-16T04:11:55.735Z,11.52
2018-05-16T04:14:23.234Z,13.43
2018-05-16T04:16:50.738Z,11.50
2018-05-16T04:19:18.225Z,12.43
2018-05-16T04:21:45.711Z,12.23
2018-05-16T04:24:13.211Z,13.77
2018-05-16T04:26:40.694Z,10.68
2018-05-16T04:29:08.190Z,10.85
2018-05-16T04:31:35.693Z,13.52
2018-05-16T04:34:03.177Z,12.07
2018-05-16T04:36:30.692Z,12.05
2018-05-16T04:38:58.173Z,11.98
2018-05-16T04:41:25.669Z,11.75
2018-05-16T04:43:53.151Z,11.25
2018-05-16T04:46:20.643Z,12.20
2018-05-16T04:48:48.126Z,10.95
2018-05-16T04:51:15.636Z,10.82
2018-05-16T04:53:43.314Z,11.15
2018-05-16T04:56:10.824Z,12.35
2018-05-16T04:58:38.312Z,14.23
2018-05-16T05:01:05.805Z,11.45
2018-05-16T05:03:33.295Z,12.40
2018-05-16T05:06:00.813Z,11.68
2018-05-16T05:08:28.309Z,11.75
2018-05-16T05:10:55.792Z,17.67
2018-05-16T05:13:23.308Z,12.00
2018-05-16T05:15:50.810Z,10.82
2018-05-16T05:18:18.384Z,11.60
2018-05-16T05:20:46.022Z,11.82
2018-05-16T05:23:13.517Z,11.30
2018-05-16T05:25:40.997Z,13.82
2018-05-16T05:28:08.487Z,11.18
2018-05-16T05:30:35.971Z,10.90
2018-05-16T05:33:03.458Z,11.98
2018-05-16T05:35:30.965Z,11.52
2018-05-16T05:37:58.438Z,14.90
2018-05-16T05:40:25.953Z,14.00
2018-05-16T05:42:53.458Z,12.40
2018-05-16T05:45:20.958Z,13.07
2018-05-16T05:47:48.480Z,11.15
2018-05-16T05:50:15.976Z,10.93
2018-05-16T05:52:43.475Z,11.75
2018-05-16T05:55:10.983Z,12.48
2018-05-16T05:57:38.476Z,13.45
2018-05-16T06:00:06.056Z,12.43
2018-05-16T06:02:33.676Z,10.45
2018-05-16T06:05:01.143Z,10.43
2018-05-16T06:07:28.630Z,16.48
2018-05-16T06:09:56.124Z,16.62
2018-05-16T06:12:23.370Z,12.05
2018-05-16T06:14:50.871Z,11.85
2018-05-16T06:17:18.360Z,11.90
2018-05-16T06:19:45.999Z,10.70
2018-05-16T06:22:13.541Z,12.23
2018-05-16T06:24:41.037Z,12.13
2018-05-16T06:27:08.578Z,11.82
2018-05-16T06:29:36.355Z,10.32
2018-05-16T06:32:04.014Z,11.98
2018-05-16T06:34:31.499Z,10.88
2018-05-16T06:36:59.030Z,12.02
2018-05-16T06:39:26.518Z,14.48
2018-05-16T06:41:54.006Z,11.15
2018-05-16T06:44:21.594Z,16.12
2018-05-16T06:46:49.082Z,11.98
2018-05-16T06:49:16.565Z,13.57
2018-05-16T06:51:44.083Z,11.38
2018-05-16T06:54:11.587Z,11.18
2018-05-16T06:56:39.066Z,10.38
2018-05-16T06:59:06.616Z,10.50
2018-05-16T07:01:34.091Z,10.10
2018-05-16T07:04:01.799Z,10.20
2018-05-16T07:06:29.456Z,11.80
2018-05-16T07:08:56.950Z,12.90
2018-05-16T07:11:24.616Z,9.77
2018-05-16T07:13:52.093Z,9.80
2018-05-16T07:16:19.575Z,9.65
2018-05-16T07:18:47.058Z,10.20
2018-05-16T07:21:14.550Z,8.75
2018-05-16T07:23:42.043Z,9.57
2018-05-16T07:26:09.546Z,18.67
2018-05-16T07:28:37.025Z,9.10
2018-05-16T07:31:04.517Z,10.45
2018-05-16T07:33:31.995Z,9.70
2018-05-16T07:35:59.512Z,12.82
2018-05-16T07:38:26.995Z,9.88
2018-05-16T07:40:54.490Z,8.20
2018-05-16T07:43:21.991Z,10.05
2018-05-16T07:45:49.473Z,8.60
2018-05-16T07:48:16.986Z,11.20
2018-05-16T07:50:44.479Z,8.55
2018-05-16T07:53:11.958Z,8.13
2018-05-16T07:55:39.438Z,9.02
2018-05-16T07:58:06.905Z,7.30
2018-05-16T08:00:34.410Z,8.05
2018-05-16T08:03:01.902Z,9.23
2018-05-16T08:05:29.390Z,7.22
2018-05-16T08:07:56.869Z,8.20
2018-05-16T08:10:24.381Z,8.80
2018-05-16T08:12:52.058Z,7.40
2018-05-16T08:15:19.542Z,7.00
2018-05-16T08:17:47.037Z,9.50
2018-05-16T08:20:14.533Z,7.10
2018-05-16T08:22:42.021Z,6.72
2018-05-16T08:25:09.508Z,5.40
2018-05-16T08:27:36.988Z,6.93
2018-05-16T08:30:04.216Z,7.90
2018-05-16T08:32:31.721Z,6.82
2018-05-16T08:34:59.200Z,8.65
2018-05-16T08:37:26.677Z,6.93
2018-05-16T08:39:54.167Z,6.32
2018-05-16T08:42:21.653Z,7.40
2018-05-16T08:44:48.868Z,5.90
2018-05-16T08:47:16.359Z,6.10
2018-05-16T08:49:43.841Z,5.90
2018-05-16T08:52:11.374Z,7.45
2018-05-16T08:54:38.850Z,6.45
2018-05-16T08:57:06.330Z,6.43
2018-05-16T08:59:33.801Z,6.07
2018-05-16T09:02:01.500Z,6.55
2018-05-16T09:04:28.995Z,7.18
2018-05-16T09:06:56.474Z,5.85
2018-05-16T09:09:23.956Z,8.20
2018-05-16T09:11:51.450Z,6.15
2018-05-16T09:14:18.970Z,6.45
2018-05-16T09:16:46.483Z,9.50
2018-05-16T09:19:13.954Z,8.68
2018-05-16T09:21:41.434Z,8.20
2018-05-16T09:24:08.922Z,6.70
2018-05-16T09:26:36.406Z,10.93
2018-05-16T09:29:03.909Z,8.43
2018-05-16T09:31:31.411Z,6.78
2018-05-16T09:33:58.896Z,5.18
2018-05-16T09:36:26.379Z,6.60
2018-05-16T09:38:53.874Z,6.00
2018-05-16T09:41:21.078Z,5.93
2018-05-16T09:43:48.317Z,4.77
2018-05-16T09:46:15.797Z,6.10
2018-05-16T09:48:43.280Z,5.12
2018-05-16T09:51:10.770Z,5.20
2018-05-16T09:53:38.261Z,4.72
2018-05-16T09:56:05.772Z,4.40
2018-05-16T09:58:33.258Z,10.65
2018-05-16T10:01:00.835Z,6.20
2018-05-16T10:03:28.444Z,4.43
2018-05-16T10:05:55.932Z,4.95
2018-05-16T10:08:23.433Z,4.90
2018-05-16T10:10:50.922Z,4.68
2018-05-16T10:13:18.419Z,3.75
2018-05-16T10:15:45.639Z,3.80
2018-05-16T10:18:13.040Z,3.63
2018-05-16T10:20:40.247Z,3.30
2018-05-16T10:23:07.433Z,4.30
2018-05-16T10:25:34.644Z,15.93
2018-05-16T10:28:01.844Z,3.70
2018-05-16T10:30:29.442Z,3.75
2018-05-16T10:32:56.916Z,3.17
2018-05-16T10:35:24.387Z,3.03
2018-05-16T10:37:51.877Z,3.50
2018-05-16T10:40:19.096Z,3.40
2018-05-16T10:42:46.309Z,5.83
2018-05-16T10:45:13.501Z,3.43
2018-05-16T10:47:40.711Z,3.27
2018-05-16T10:50:07.926Z,2.53
2018-05-16T10:52:35.142Z,3.47
2018-05-16T10:55:02.328Z,6.40
2018-05-16T10:57:29.574Z,2.73
2018-05-16T10:59:56.949Z,3.20
2018-05-16T11:02:24.163Z,3.17
2018-05-16T11:04:51.377Z,4.63
2018-05-16T11:07:18.576Z,3.23
2018-05-16T11:09:45.790Z,3.07
2018-05-16T11:12:12.983Z,3.63
2018-05-16T11:14:39.941Z,2.23
2018-05-16T11:17:07.152Z,3.77
2018-05-16T11:19:34.348Z,1.70
2018-05-16T11:22:01.545Z,6.50
2018-05-16T11:24:28.762Z,1.80
2018-05-16T11:26:55.967Z,1.70
2018-05-16T11:29:23.475Z,2.30
2018-05-16T11:31:50.670Z,3.97
2018-05-16T11:34:17.900Z,4.07
2018-05-16T11:36:45.302Z,2.00
2018-05-16T11:39:12.478Z,2.13
2018-05-16T11:41:39.701Z,2.07
2018-05-16T11:44:06.893Z,2.20
2018-05-16T11:46:34.576Z,1.60
2018-05-16T11:49:01.784Z,2.03
2018-05-16T11:51:29.258Z,2.40
2018-05-16T11:53:56.466Z,2.37
2018-05-16T11:56:23.661Z,2.80
2018-05-16T11:58:50.870Z,3.47
2018-05-16T12:01:18.061Z,3.60
2018-05-16T12:03:45.270Z,2.50
2018-05-16T12:06:12.463Z,4.00
2018-05-16T12:08:39.673Z,3.53
2018-05-16T12:11:06.879Z,1.90
2018-05-16T12:13:34.087Z,1.97
2018-05-16T12:16:01.399Z,2.67
2018-05-16T12:18:28.771Z,4.20
2018-05-16T12:20:55.983Z,1.83
2018-05-16T12:23:23.205Z,1.80
2018-05-16T12:25:50.429Z,2.03
2018-05-16T12:28:17.900Z,2.15
2018-05-16T12:30:45.093Z,1.90
2018-05-16T12:33:12.298Z,1.97
2018-05-16T12:35:39.768Z,1.70
2018-05-16T12:38:07.256Z,1.75
2018-05-16T12:40:34.757Z,1.90
2018-05-16T12:43:08.018Z,1.55
2018-05-16T12:45:35.487Z,1.48
2018-05-16T12:48:02.967Z,1.70
2018-05-16T12:50:30.448Z,1.87
2018-05-16T12:52:57.921Z,1.95
2018-05-16T12:55:25.155Z,3.67
2018-05-16T12:57:52.537Z,1.73
2018-05-16T13:00:19.747Z,3.40
2018-05-16T13:02:47.241Z,2.08
2018-05-16T13:05:14.433Z,2.10
2018-05-16T13:07:41.643Z,2.00
2018-05-16T13:10:08.855Z,6.03
2018-05-16T13:12:36.031Z,2.30
2018-05-16T13:15:03.225Z,2.30
2018-05-16T13:17:30.423Z,2.10
2018-05-16T13:19:57.644Z,4.93
2018-05-16T13:22:24.841Z,2.10
2018-05-16T13:24:52.084Z,2.53
2018-05-16T13:27:19.317Z,2.20
2018-05-16T13:29:46.537Z,2.43
2018-05-16T13:32:13.741Z,3.57
2018-05-16T13:34:40.929Z,3.07
2018-05-16T13:37:08.130Z,7.67
2018-05-16T13:39:35.406Z,5.00
2018-05-16T13:42:02.756Z,4.57
2018-05-16T13:44:29.974Z,4.20
2018-05-16T13:46:57.152Z,3.53
2018-05-16T13:49:24.438Z,3.50
2018-05-16T13:51:51.630Z,3.13
2018-05-16T13:54:19.128Z,3.70
2018-05-16T13:56:46.607Z,3.00
2018-05-16T13:59:13.799Z,7.40
2018-05-16T14:01:41.284Z,5.12
2018-05-16T14:04:08.476Z,4.07
2018-05-16T14:06:35.835Z,6.03
2018-05-16T14:09:02.625Z,3.07
2018-05-16T14:11:30.092Z,4.18
2018-05-16T14:13:57.311Z,6.20
2018-05-16T14:16:24.500Z,4.83
2018-05-16T14:18:51.724Z,3.67
2018-05-16T14:21:18.903Z,3.73
2018-05-16T14:23:46.195Z,3.53
2018-05-16T14:26:13.539Z,4.10
2018-05-16T14:28:40.782Z,3.63
2018-05-16T14:31:08.246Z,3.12
2018-05-16T14:33:35.512Z,2.70
2018-05-16T14:36:02.748Z,4.13
2018-05-16T14:38:30.121Z,3.43
2018-05-16T14:40:57.636Z,4.05
2018-05-16T14:43:25.125Z,3.58
2018-05-16T14:45:52.619Z,4.97
2018-05-16T14:48:20.107Z,3.03
2018-05-16T14:50:47.591Z,4.97
2018-05-16T14:53:14.929Z,4.40
2018-05-16T14:55:42.244Z,4.13
2018-05-16T14:58:09.730Z,4.80
2018-05-16T15:00:36.939Z,4.60
2018-05-16T15:03:03.885Z,4.60
2018-05-16T15:05:31.121Z,5.93
2018-05-16T15:07:58.309Z,5.13
2018-05-16T15:10:25.548Z,9.37
2018-05-16T15:12:52.525Z,5.40
2018-05-16T15:15:19.756Z,4.73
2018-05-16T15:17:46.996Z,5.93
2018-05-16T15:20:14.199Z,5.23
2018-05-16T15:22:41.405Z,5.77
2018-05-16T15:25:08.614Z,4.80
2018-05-16T15:27:35.862Z,5.10
2018-05-16T15:30:03.066Z,6.53
2018-05-16T15:32:30.341Z,5.03
2018-05-16T15:34:57.574Z,5.23
2018-05-16T15:37:24.790Z,7.20
2018-05-16T15:39:51.993Z,5.63
2018-05-16T15:42:19.180Z,5.27
2018-05-16T15:44:46.415Z,5.53
2018-05-16T15:47:13.641Z,5.00
2018-05-16T15:49:40.837Z,6.23
2018-05-16T15:52:08.054Z,6.33
2018-05-16T15:54:35.281Z,4.93
2018-05-16T15:57:02.508Z,4.93
2018-05-16T15:59:29.716Z,5.37
2018-05-16T16:01:56.942Z,5.87
2018-05-16T16:04:24.168Z,5.53
2018-05-16T16:06:51.395Z,6.00
2018-05-16T16:09:18.602Z,5.33
2018-05-16T16:11:45.823Z,5.50
2018-05-16T16:14:13.067Z,5.40
2018-05-16T16:16:40.258Z,5.20
2018-05-16T16:19:07.504Z,6.17
2018-05-16T16:21:34.714Z,5.47
2018-05-16T16:24:01.919Z,5.60
2018-05-16T16:26:29.163Z,6.03
2018-05-16T16:28:56.390Z,4.40
2018-05-16T16:31:23.821Z,2.03
2018-05-16T16:33:51.009Z,1.73
2018-05-16T16:36:18.207Z,1.13
2018-05-16T16:38:45.492Z,1.77
2018-05-16T16:41:12.903Z,4.73
2018-05-16T16:43:40.078Z,2.93
2018-05-16T16:46:07.340Z,1.53
2018-05-16T16:48:34.560Z,1.70
2018-05-16T16:51:01.774Z,7.47
2018-05-16T16:53:28.971Z,2.67
2018-05-16T16:55:56.189Z,2.10
2018-05-16T16:58:23.444Z,2.43
2018-05-16T17:00:50.627Z,1.60
2018-05-16T17:03:17.821Z,3.70
2018-05-16T17:05:45.326Z,3.28
2018-05-16T17:08:12.850Z,4.72
2018-05-16T17:10:40.224Z,2.30
2018-05-16T17:13:07.718Z,2.95
2018-05-16T17:15:34.922Z,2.10
2018-05-16T17:18:02.410Z,2.20
2018-05-16T17:20:29.929Z,4.03
2018-05-16T17:22:57.447Z,2.30
2018-05-16T17:25:24.918Z,1.95
2018-05-16T17:27:52.414Z,3.50
2018-05-16T17:30:19.929Z,6.65
2018-05-16T17:32:47.598Z,3.28
2018-05-16T17:35:15.111Z,3.28
2018-05-16T17:37:42.605Z,3.10
2018-05-16T17:40:10.939Z,3.10
2018-05-16T17:42:38.136Z,3.20
2018-05-16T17:45:05.638Z,3.78
2018-05-16T17:47:33.130Z,9.18
2018-05-16T17:50:00.618Z,5.82
2018-05-16T17:52:28.148Z,4.78
2018-05-16T17:54:55.342Z,4.57
2018-05-16T17:57:22.918Z,3.58
2018-05-16T17:59:50.384Z,3.65
2018-05-16T18:02:17.913Z,3.25
2018-05-16T18:04:45.416Z,3.33
2018-05-16T18:07:12.908Z,3.05
2018-05-16T18:09:40.099Z,3.00
2018-05-16T18:12:07.330Z,3.13
2018-05-16T18:14:50.134Z,9.60
2018-05-16T18:17:19.984Z,4.60
2018-05-16T18:19:47.183Z,5.43
2018-05-16T18:22:14.373Z,2.40
2018-05-16T18:24:41.593Z,2.23
2018-05-16T18:27:09.107Z,2.60
2018-05-16T18:29:36.657Z,1.90
2018-05-16T18:32:04.141Z,2.50
2018-05-16T18:34:31.678Z,2.35
2018-05-16T18:36:59.202Z,2.25
2018-05-16T18:39:26.780Z,2.30
2018-05-16T18:41:54.278Z,2.87
2018-05-16T18:44:21.780Z,2.97
2018-05-16T18:46:49.347Z,2.35
2018-05-16T18:49:17.000Z,2.55
2018-05-16T18:51:44.608Z,2.95
2018-05-16T18:54:12.133Z,4.12
2018-05-16T18:56:39.681Z,3.15
2018-05-16T18:59:07.234Z,3.40
2018-05-16T19:01:34.803Z,3.37
2018-05-16T19:04:02.321Z,3.95
2018-05-16T19:06:29.873Z,3.42
2018-05-16T19:08:57.429Z,3.90
2018-05-16T19:11:24.954Z,4.15
2018-05-16T19:13:52.515Z,3.92
2018-05-16T19:16:20.046Z,3.87
2018-05-16T19:18:47.610Z,4.57
2018-05-16T19:21:15.176Z,4.60
2018-05-16T19:23:42.743Z,6.05
2018-05-16T19:26:10.565Z,4.40
2018-05-16T19:28:38.098Z,4.43
2018-05-16T19:31:05.681Z,4.47
2018-05-16T19:33:33.242Z,13.27
2018-05-16T19:36:00.833Z,5.65
2018-05-16T19:38:28.366Z,9.48
2018-05-16T19:40:55.899Z,5.05
2018-05-16T19:43:23.499Z,5.43
2018-05-16T19:45:51.032Z,6.50
2018-05-16T19:48:18.630Z,5.90
2018-05-16T19:50:47.670Z,6.60
2018-05-16T19:53:15.216Z,6.80
2018-05-16T19:55:42.765Z,6.68
2018-05-16T19:58:10.342Z,7.00
2018-05-16T20:00:37.876Z,7.20
2018-05-16T20:03:05.423Z,7.28
2018-05-16T20:05:32.932Z,7.40
2018-05-16T20:08:00.435Z,8.25
2018-05-16T20:10:27.991Z,7.05
2018-05-16T20:12:55.503Z,8.10
2018-05-16T20:15:22.991Z,7.57
2018-05-16T20:17:50.485Z,10.85
2018-05-16T20:20:18.001Z,8.45
2018-05-16T20:22:45.485Z,7.85
2018-05-16T20:25:13.055Z,9.57
2018-05-16T20:27:40.561Z,9.38
2018-05-16T20:30:08.079Z,8.98
2018-05-16T20:32:35.570Z,9.85
2018-05-16T20:35:03.056Z,9.43
2018-05-16T20:37:30.569Z,9.85
2018-05-16T20:39:58.173Z,11.15
2018-05-16T20:42:25.794Z,9.80
2018-05-16T20:44:53.301Z,13.05
2018-05-16T20:47:20.787Z,8.70
2018-05-16T20:49:48.267Z,9.68
2018-05-16T20:52:15.793Z,10.07
2018-05-16T20:54:43.003Z,12.40
2018-05-16T20:57:10.333Z,10.37
2018-05-16T20:59:37.842Z,10.63
2018-05-16T21:02:05.083Z,9.17
2018-05-16T21:04:32.575Z,9.88
2018-05-16T21:07:00.154Z,10.13
2018-05-16T21:09:27.664Z,10.82
2018-05-16T21:11:55.142Z,14.00
2018-05-16T21:14:22.635Z,10.32
2018-05-16T21:16:49.843Z,10.67
2018-05-16T21:19:17.406Z,11.02
2018-05-16T21:21:44.617Z,12.27
2018-05-16T21:24:12.104Z,15.15
2018-05-16T21:26:39.609Z,10.95
2018-05-16T21:29:07.136Z,11.75
2018-05-16T21:31:34.632Z,11.63
2018-05-16T21:34:02.106Z,11.93
2018-05-16T21:36:29.653Z,11.70
2018-05-16T21:38:57.141Z,11.00
2018-05-16T21:41:24.646Z,10.55
2018-05-16T21:43:52.146Z,10.27
2018-05-16T21:46:19.647Z,11.23
2018-05-16T21:48:47.165Z,10.00
2018-05-16T21:51:14.665Z,10.73
2018-05-16T21:53:42.163Z,12.80
2018-05-16T21:56:09.684Z,11.45
2018-05-16T21:58:37.210Z,12.70
2018-05-16T22:01:04.683Z,9.73
2018-05-16T22:03:32.202Z,10.88
2018-05-16T22:05:59.683Z,9.20
2018-05-16T22:08:27.240Z,10.77
2018-05-16T22:10:54.728Z,11.15
2018-05-16T22:13:22.221Z,8.90
2018-05-16T22:15:49.711Z,10.05
2018-05-16T22:18:16.916Z,10.43
2018-05-16T22:20:44.438Z,9.23
2018-05-16T22:23:11.943Z,9.52
2018-05-16T22:25:39.429Z,9.52
2018-05-16T22:28:06.897Z,9.35
2018-05-16T22:30:40.020Z,10.07
2018-05-16T22:33:13.023Z,9.48
2018-05-16T22:35:45.955Z,9.70
2018-05-16T22:38:18.963Z,10.20
2018-05-16T22:40:51.864Z,9.35
2018-05-16T22:43:19.166Z,9.48
2018-05-16T22:46:03.038Z,9.20
2018-05-16T22:48:30.536Z,9.35
2018-05-16T22:50:58.096Z,12.50
2018-05-16T22:53:25.578Z,10.30
2018-05-16T22:55:53.070Z,14.35
2018-05-16T22:58:20.563Z,8.93
2018-05-16T23:00:48.057Z,9.25
2018-05-16T23:03:15.565Z,10.48
2018-05-16T23:05:43.026Z,9.60
2018-05-16T23:08:10.521Z,10.50
2018-05-16T23:10:37.997Z,9.38
2018-05-16T23:13:05.489Z,10.00
2018-05-16T23:15:32.726Z,8.80
2018-05-16T23:18:00.211Z,10.70
2018-05-16T23:20:27.725Z,10.18
2018-05-16T23:22:55.189Z,8.52
2018-05-16T23:25:22.680Z,11.12
2018-05-16T23:27:50.149Z,8.13
2018-05-16T23:30:17.653Z,11.18
2018-05-16T23:32:45.155Z,13.95
2018-05-16T23:35:12.653Z,9.73
2018-05-16T23:37:40.158Z,8.73
2018-05-16T23:40:07.661Z,9.15
2018-05-16T23:42:35.152Z,12.20
2018-05-16T23:45:02.643Z,10.25
2018-05-16T23:47:30.146Z,8.98
2018-05-16T23:49:57.644Z,10.48
2018-05-16T23:52:25.150Z,11.15
2018-05-16T23:54:52.643Z,10.23
2018-05-16T23:57:20.148Z,10.90
2018-05-16T23:59:47.625Z,9.68
